Wetterdaten: Woche 07.04.03 - 13.04.03 (KW15)
Datum Zeit Temperatur Luftfeuchte Luftdruck Regenmenge Wind Richtung Taupunkt Windchill
07.04.2003 00:00 2.0 C 52 % 1022.1 hPa 0.0 l/m 5.3 km/h (1 Bft) N-NO -6.8 C 0.7 C
07.04.2003 01:00 0.4 C 67 % 1022.1 hPa 0.0 l/m 3.1 km/h (1 Bft) O-SO -5.1 C -0.3 C
07.04.2003 02:00 -1.3 C 81 % 1022.1 hPa 0.0 l/m 5.1 km/h (1 Bft) SO -4.1 C -2.9 C
07.04.2003 03:00 -1.6 C 86 % 1022.1 hPa 0.0 l/m 1.1 km/h (1 Bft) O -3.7 C -1.8 C
07.04.2003 04:00 -1.2 C 83 % 1021.7 hPa 0.0 l/m 0.3 km/h (0 Bft) O -3.7 C -1.2 C
07.04.2003 05:00 -2.0 C 85 % 1021.4 hPa 0.0 l/m 6.7 km/h (2 Bft) O-SO -4.3 C -4.1 C
07.04.2003 06:00 -3.4 C 93 % 1021.1 hPa 0.0 l/m 1.5 km/h (1 Bft) O -4.4 C -3.8 C
07.04.2003 07:00 -2.4 C 79 % 1021.9 hPa 0.0 l/m 2.6 km/h (1 Bft) NO -5.6 C -2.8 C
07.04.2003 08:00 -1.7 C 65 % 1022.1 hPa 0.0 l/m 4.7 km/h (1 Bft) NO -7.3 C -3.0 C
07.04.2003 09:00 -0.1 C 58 % 1022.1 hPa 0.0 l/m 10.9 km/h (2 Bft) O-SO -7.3 C -3.3 C
07.04.2003 10:00 0.2 C 53 % 1022.5 hPa 0.0 l/m 10.0 km/h (2 Bft) N -8.2 C -2.7 C
07.04.2003 11:00 0.6 C 48 % 1022.8 hPa 0.0 l/m 8.2 km/h (2 Bft) NO -9.3 C -1.6 C
07.04.2003 12:00 1.5 C 43 % 1023.2 hPa 0.0 l/m 17.0 km/h (3 Bft) O-SO -9.6 C -2.4 C
07.04.2003 13:00 2.8 C 34 % 1023.2 hPa 0.0 l/m 17.7 km/h (3 Bft) O-SO -11.6 C -0.8 C
07.04.2003 14:00 3.8 C 30 % 1023.2 hPa 0.0 l/m 12.9 km/h (3 Bft) O-SO -12.4 C 1.0 C
07.04.2003 15:00 3.6 C 28 % 1023.2 hPa 0.0 l/m 14.4 km/h (3 Bft) SO -13.3 C 0.6 C
07.04.2003 16:00 3.1 C 34 % 1023.2 hPa 0.0 l/m 13.1 km/h (3 Bft) O-SO -11.2 C 0.2 C
07.04.2003 17:00 3.7 C 28 % 1022.5 hPa 0.0 l/m 22.1 km/h (4 Bft) SO -12.9 C -0.8 C
07.04.2003 18:00 2.4 C 28 % 1022.9 hPa 0.0 l/m 15.6 km/h (3 Bft) SO -14.1 C -1.1 C
07.04.2003 19:00 1.2 C 31 % 1023.2 hPa 0.0 l/m 11.1 km/h (2 Bft) O-SO -14.1 C -1.4 C
07.04.2003 20:00 -1.0 C 43 % 1023.2 hPa 0.0 l/m 3.0 km/h (1 Bft) O-SO -11.9 C -1.8 C
07.04.2003 21:00 -2.4 C 52 % 1024.2 hPa 0.0 l/m 0.5 km/h (0 Bft) N -10.9 C -2.5 C
07.04.2003 22:00 -2.9 C 53 % 1024.2 hPa 0.0 l/m 0.1 km/h (0 Bft) N -11.1 C -2.9 C
07.04.2003 23:00 -3.4 C 57 % 1024.2 hPa 0.0 l/m 0.4 km/h (0 Bft) O-SO -10.8 C -3.6 C
08.04.2003 00:00 -2.5 C 56 % 1024.2 hPa 0.0 l/m 1.9 km/h (1 Bft) O-NO -10.1 C -3.0 C
08.04.2003 01:00 -2.8 C 58 % 1024.2 hPa 0.0 l/m 2.4 km/h (1 Bft) NO -9.8 C -3.4 C
08.04.2003 02:00 -2.7 C 60 % 1023.6 hPa 0.0 l/m 8.0 km/h (2 Bft) O-NO -9.5 C -5.5 C
08.04.2003 03:00 -3.2 C 62 % 1023.2 hPa 0.0 l/m 4.8 km/h (1 Bft) NO -9.5 C -4.6 C
08.04.2003 04:00 -3.4 C 61 % 1023.2 hPa 0.0 l/m 6.3 km/h (2 Bft) NO -9.7 C -5.5 C
08.04.2003 05:00 -3.8 C 62 % 1023.2 hPa 0.0 l/m 3.3 km/h (1 Bft) NO -9.9 C -4.9 C
08.04.2003 06:00 -4.2 C 63 % 1023.2 hPa 0.0 l/m 1.8 km/h (1 Bft) O-NO -10.1 C -4.6 C
08.04.2003 07:00 -4.0 C 61 % 1023.2 hPa 0.0 l/m 0.5 km/h (0 Bft) NO -10.4 C -4.0 C
08.04.2003 08:00 -2.4 C 54 % 1023.3 hPa 0.0 l/m 5.9 km/h (2 Bft) O -10.5 C -4.1 C
08.04.2003 09:00 -0.5 C 49 % 1023.7 hPa 0.0 l/m 7.8 km/h (2 Bft) O-SO -10.0 C -3.0 C
08.04.2003 10:00 1.6 C 41 % 1024.2 hPa 0.0 l/m 14.4 km/h (3 Bft) O-SO -10.2 C -1.9 C
08.04.2003 11:00 3.5 C 36 % 1023.5 hPa 0.0 l/m 21.2 km/h (4 Bft) SO -10.2 C -1.0 C
08.04.2003 12:00 4.1 C 28 % 1022.8 hPa 0.0 l/m 5.8 km/h (2 Bft) NW -12.9 C 2.8 C
08.04.2003 13:00 5.3 C 25 % 1022.1 hPa 0.0 l/m 4.3 km/h (1 Bft) W-NW -13.1 C 4.4 C
08.04.2003 14:00 6.5 C 26 % 1021.1 hPa 0.0 l/m 5.7 km/h (1 Bft) W-NW -11.9 C 5.5 C
08.04.2003 15:00 7.9 C 26 % 1020.5 hPa 0.0 l/m 5.0 km/h (1 Bft) N-NO -10.5 C 7.1 C
08.04.2003 16:00 8.8 C 27 % 1019.6 hPa 0.0 l/m 5.7 km/h (1 Bft) SO -9.1 C 8.1 C
08.04.2003 17:00 8.8 C 27 % 1018.7 hPa 0.0 l/m 3.7 km/h (1 Bft) SO -9.4 C 8.4 C
08.04.2003 18:00 7.9 C 25 % 1018.0 hPa 0.0 l/m 2.1 km/h (1 Bft) O-SO -10.8 C 7.7 C
08.04.2003 19:00 7.4 C 28 % 1018.0 hPa 0.0 l/m 4.3 km/h (1 Bft) O-SO -10.0 C 6.9 C
08.04.2003 20:00 5.4 C 37 % 1017.6 hPa 0.0 l/m 5.6 km/h (1 Bft) O-SO -8.1 C 4.3 C
08.04.2003 21:00 4.1 C 43 % 1016.9 hPa 0.0 l/m 1.5 km/h (1 Bft) O-SO -7.4 C 3.7 C
08.04.2003 22:00 3.6 C 52 % 1016.9 hPa 0.0 l/m 0.8 km/h (0 Bft) S-SO -5.2 C 3.5 C
08.04.2003 23:00 2.9 C 56 % 1016.9 hPa 0.0 l/m 0.0 km/h (0 Bft) N -4.9 C 2.9 C
09.04.2003 00:00 2.9 C 54 % 1016.9 hPa 0.0 l/m 0.4 km/h (0 Bft) S-SO -5.5 C 2.9 C
09.04.2003 01:00 2.8 C 43 % 1016.8 hPa 0.0 l/m 1.4 km/h (1 Bft) NW -8.5 C 2.7 C
09.04.2003 02:00 2.4 C 43 % 1015.9 hPa 0.0 l/m 2.4 km/h (1 Bft) NW -8.9 C 1.8 C
09.04.2003 03:00 2.2 C 40 % 1015.9 hPa 0.0 l/m 0.7 km/h (0 Bft) SW -10.1 C 2.2 C
09.04.2003 04:00 2.1 C 42 % 1015.9 hPa 0.0 l/m 0.9 km/h (0 Bft) N-NO -9.5 C 2.0 C
09.04.2003 05:00 1.5 C 48 % 1015.9 hPa 0.0 l/m 0.8 km/h (0 Bft) O -8.4 C 1.4 C
09.04.2003 06:00 1.1 C 51 % 1015.5 hPa 0.0 l/m 0.1 km/h (0 Bft) N -8.0 C 1.1 C
09.04.2003 07:00 1.0 C 55 % 1015.5 hPa 0.0 l/m 0.9 km/h (0 Bft) O-SO -7.1 C 0.8 C
09.04.2003 08:00 1.6 C 55 % 1015.9 hPa 0.0 l/m 6.2 km/h (2 Bft) SO -6.3 C 0.0 C
09.04.2003 09:00 2.3 C 54 % 1015.9 hPa 0.0 l/m 8.6 km/h (2 Bft) O-SO -5.9 C 0.1 C
09.04.2003 10:00 3.3 C 55 % 1015.7 hPa 0.0 l/m 13.2 km/h (3 Bft) O-SO -5.0 C 0.0 C
09.04.2003 11:00 4.7 C 53 % 1014.9 hPa 0.0 l/m 10.0 km/h (2 Bft) O-SO -4.0 C 2.4 C
09.04.2003 12:00 5.5 C 51 % 1014.3 hPa 0.0 l/m 11.6 km/h (2 Bft) SO -3.8 C 3.1 C
09.04.2003 13:00 5.9 C 52 % 1013.8 hPa 0.0 l/m 7.1 km/h (2 Bft) SO -3.2 C 4.6 C
09.04.2003 14:00 7.2 C 49 % 1012.9 hPa 0.0 l/m 12.0 km/h (2 Bft) SO -2.9 C 5.1 C
09.04.2003 15:00 7.3 C 49 % 1011.8 hPa 0.0 l/m 5.4 km/h (1 Bft) SO -2.8 C 6.5 C
09.04.2003 16:00 6.9 C 54 % 1010.9 hPa 0.0 l/m 10.3 km/h (2 Bft) O-SO -1.8 C 4.9 C
09.04.2003 17:00 6.4 C 56 % 1010.4 hPa 0.0 l/m 6.4 km/h (2 Bft) SO -1.8 C 5.2 C
09.04.2003 18:00 6.5 C 55 % 1009.6 hPa 0.0 l/m 0.8 km/h (0 Bft) O-SO -1.9 C 6.5 C
09.04.2003 19:00 5.8 C 62 % 1009.6 hPa 0.0 l/m 0.6 km/h (0 Bft) O-SO -1.0 C 5.7 C
09.04.2003 20:00 5.0 C 70 % 1009.4 hPa 0.0 l/m 0.0 km/h (0 Bft) N -0.1 C 5.0 C
09.04.2003 21:00 4.3 C 75 % 1009.4 hPa 0.0 l/m 0.0 km/h (0 Bft) N 0.4 C 4.3 C
09.04.2003 22:00 3.9 C 81 % 1008.7 hPa 0.0 l/m 0.0 km/h (0 Bft) N 1.0 C 3.9 C
09.04.2003 23:00 3.2 C 87 % 1008.6 hPa 0.0 l/m 0.0 km/h (0 Bft) N 1.2 C 3.2 C
10.04.2003 00:00 2.6 C 90 % 1007.8 hPa 0.0 l/m 0.0 km/h (0 Bft) N 1.2 C 2.6 C
10.04.2003 01:00 2.0 C 95 % 1007.6 hPa 0.0 l/m 0.0 km/h (0 Bft) N 1.3 C 2.0 C
10.04.2003 02:00 2.2 C 92 % 1006.6 hPa 0.0 l/m 0.0 km/h (0 Bft) N 1.1 C 2.2 C
10.04.2003 03:00 2.7 C 94 % 1006.5 hPa 0.0 l/m 0.0 km/h (0 Bft) N 1.8 C 2.7 C
10.04.2003 04:00 2.6 C 98 % 1005.5 hPa 0.6 l/m 0.0 km/h (0 Bft) N 2.3 C 2.6 C
10.04.2003 05:00 2.5 C 100 % 1005.3 hPa 0.9 l/m 0.0 km/h (0 Bft) N 2.5 C 2.5 C
10.04.2003 06:00 2.2 C 100 % 1004.4 hPa 1.2 l/m 0.0 km/h (0 Bft) N 2.2 C 2.2 C
10.04.2003 07:00 1.6 C 100 % 1004.4 hPa 1.2 l/m 0.0 km/h (0 Bft) N 1.6 C 1.6 C
10.04.2003 08:00 1.4 C 100 % 1003.7 hPa 0.9 l/m 0.0 km/h (0 Bft) N 1.4 C 1.4 C
10.04.2003 09:00 2.0 C 100 % 1003.4 hPa 0.3 l/m 0.0 km/h (0 Bft) N 2.0 C 2.0 C
10.04.2003 10:00 2.4 C 99 % 1002.9 hPa 0.3 l/m 0.0 km/h (0 Bft) N 2.3 C 2.4 C
10.04.2003 11:00 3.3 C 96 % 1002.3 hPa 0.3 l/m 0.0 km/h (0 Bft) N 2.7 C 3.3 C
10.04.2003 12:00 3.5 C 95 % 1002.3 hPa 0.9 l/m 0.0 km/h (0 Bft) N 2.8 C 3.5 C
10.04.2003 13:00 3.2 C 96 % 1002.5 hPa 0.6 l/m 0.0 km/h (0 Bft) N 2.6 C 3.2 C
10.04.2003 14:00 3.1 C 98 % 1003.4 hPa 1.2 l/m 3.6 km/h (1 Bft) NW 2.8 C 2.5 C
10.04.2003 15:00 0.5 C 97 % 1004.4 hPa 0.3 l/m 32.6 km/h (5 Bft) NW 0.1 C -6.0 C
10.04.2003 16:00 1.4 C 88 % 1005.7 hPa 0.0 l/m 40.4 km/h (6 Bft) NW -0.4 C -5.5 C
10.04.2003 17:00 2.3 C 79 % 1007.1 hPa 0.0 l/m 33.8 km/h (5 Bft) NW -1.0 C -3.7 C
10.04.2003 18:00 1.8 C 81 % 1008.2 hPa 0.0 l/m 27.0 km/h (4 Bft) NW -1.1 C -3.7 C
10.04.2003 19:00 1.0 C 84 % 1009.3 hPa 0.0 l/m 15.6 km/h (3 Bft) W-NW -1.4 C -2.7 C
10.04.2003 20:00 -0.0 C 93 % 1009.6 hPa 0.0 l/m 1.2 km/h (1 Bft) S -1.0 C -0.3 C
10.04.2003 21:00 -0.6 C 98 % 1010.5 hPa 0.0 l/m 1.7 km/h (1 Bft) S -1.0 C -1.0 C
10.04.2003 22:00 -0.3 C 99 % 1010.7 hPa 0.0 l/m 0.0 km/h (0 Bft) N -0.4 C -0.3 C
10.04.2003 23:00 -0.4 C 100 % 1010.7 hPa 0.0 l/m 0.7 km/h (0 Bft) W-NW -0.5 C -0.5 C
11.04.2003 00:00 -0.6 C 100 % 1010.7 hPa 0.0 l/m 3.0 km/h (1 Bft) SO -0.6 C -1.4 C
11.04.2003 01:00 -1.1 C 100 % 1011.5 hPa 0.0 l/m 0.0 km/h (0 Bft) N -1.2 C -1.1 C
11.04.2003 02:00 -1.3 C 100 % 1011.7 hPa 0.0 l/m 0.0 km/h (0 Bft) N -1.4 C -1.3 C
11.04.2003 03:00 -0.9 C 100 % 1011.7 hPa 0.0 l/m 0.0 km/h (0 Bft) N -0.9 C -0.9 C
11.04.2003 04:00 -0.6 C 100 % 1011.7 hPa 0.0 l/m 0.0 km/h (0 Bft) N -0.6 C -0.6 C
11.04.2003 05:00 -0.8 C 100 % 1012.7 hPa 0.0 l/m 0.3 km/h (0 Bft) SO -0.8 C -0.8 C
11.04.2003 06:00 -1.1 C 100 % 1012.8 hPa 0.0 l/m 0.8 km/h (0 Bft) NW -1.1 C -1.4 C
11.04.2003 07:00 -0.9 C 100 % 1012.8 hPa 0.0 l/m 2.0 km/h (1 Bft) O-SO -0.9 C -1.5 C
11.04.2003 08:00 -0.3 C 100 % 1013.4 hPa 0.0 l/m 3.6 km/h (1 Bft) SO -0.3 C -1.2 C
11.04.2003 09:00 0.7 C 94 % 1013.8 hPa 0.0 l/m 1.6 km/h (1 Bft) SO -0.2 C 0.2 C
11.04.2003 10:00 2.0 C 85 % 1013.8 hPa 0.0 l/m 1.5 km/h (1 Bft) W-NW -0.3 C 1.6 C
11.04.2003 11:00 3.7 C 77 % 1013.8 hPa 0.0 l/m 2.7 km/h (1 Bft) NW 0.1 C 3.1 C
11.04.2003 12:00 6.6 C 57 % 1013.5 hPa 0.0 l/m 2.5 km/h (1 Bft) SO -1.4 C 6.2 C
11.04.2003 13:00 8.4 C 42 % 1012.8 hPa 0.0 l/m 3.7 km/h (1 Bft) W-NW -3.7 C 7.9 C
11.04.2003 14:00 9.8 C 41 % 1012.8 hPa 0.0 l/m 4.7 km/h (1 Bft) SO -2.7 C 9.4 C
11.04.2003 15:00 11.0 C 40 % 1012.2 hPa 0.0 l/m 5.1 km/h (1 Bft) SO -2.0 C 11.0 C
11.04.2003 16:00 11.3 C 40 % 1011.7 hPa 0.0 l/m 1.0 km/h (0 Bft) NO -1.8 C 11.3 C
11.04.2003 17:00 11.2 C 39 % 1011.7 hPa 0.0 l/m 0.2 km/h (0 Bft) O-NO -2.1 C 11.2 C
11.04.2003 18:00 9.8 C 44 % 1011.7 hPa 0.0 l/m 4.8 km/h (1 Bft) O-SO -2.0 C 9.3 C
11.04.2003 19:00 8.5 C 49 % 1011.9 hPa 0.0 l/m 1.6 km/h (1 Bft) SO -1.5 C 8.4 C
11.04.2003 20:00 6.8 C 57 % 1012.8 hPa 0.0 l/m 1.5 km/h (1 Bft) SO -1.2 C 6.7 C
11.04.2003 21:00 6.4 C 66 % 1013.0 hPa 0.0 l/m 0.9 km/h (0 Bft) SO 0.5 C 6.4 C
11.04.2003 22:00 6.0 C 72 % 1013.7 hPa 0.0 l/m 0.0 km/h (0 Bft) N 1.3 C 6.0 C
11.04.2003 23:00 5.7 C 73 % 1013.8 hPa 0.0 l/m 0.0 km/h (0 Bft) N 1.1 C 5.7 C
12.04.2003 00:00 5.1 C 74 % 1013.8 hPa 0.0 l/m 0.0 km/h (0 Bft) N 0.9 C 5.1 C
12.04.2003 01:00 5.2 C 72 % 1013.8 hPa 0.0 l/m 0.0 km/h (0 Bft) N 0.6 C 5.2 C
12.04.2003 02:00 4.9 C 74 % 1013.8 hPa 0.0 l/m 0.0 km/h (0 Bft) N 0.7 C 4.9 C
12.04.2003 03:00 4.6 C 79 % 1013.8 hPa 0.0 l/m 0.0 km/h (0 Bft) N 1.3 C 4.6 C
12.04.2003 04:00 4.6 C 79 % 1013.8 hPa 0.0 l/m 0.5 km/h (0 Bft) N-NO 1.2 C 4.5 C
12.04.2003 05:00 4.4 C 82 % 1013.8 hPa 0.0 l/m 0.8 km/h (0 Bft) O-SO 1.5 C 4.3 C
12.04.2003 06:00 4.3 C 86 % 1014.6 hPa 0.0 l/m 0.0 km/h (0 Bft) N 2.1 C 4.3 C
12.04.2003 07:00 4.1 C 94 % 1015.0 hPa 0.0 l/m 0.0 km/h (0 Bft) N 3.3 C 4.1 C
12.04.2003 08:00 4.6 C 92 % 1015.9 hPa 0.0 l/m 0.0 km/h (0 Bft) N 3.4 C 4.6 C
12.04.2003 09:00 5.4 C 88 % 1016.3 hPa 0.0 l/m 0.0 km/h (0 Bft) N 3.5 C 5.4 C
12.04.2003 10:00 6.1 C 83 % 1016.9 hPa 0.0 l/m 0.0 km/h (0 Bft) N 3.5 C 6.1 C
12.04.2003 11:00 6.8 C 82 % 1017.0 hPa 0.0 l/m 0.3 km/h (0 Bft) W-NW 4.1 C 6.8 C
12.04.2003 12:00 7.0 C 82 % 1018.0 hPa 0.0 l/m 0.2 km/h (0 Bft) W-NW 4.2 C 7.0 C
12.04.2003 13:00 7.0 C 83 % 1018.0 hPa 0.0 l/m 1.4 km/h (1 Bft) W-NW 4.2 C 6.8 C
12.04.2003 14:00 7.5 C 88 % 1018.6 hPa 0.0 l/m 0.5 km/h (0 Bft) S 5.6 C 7.5 C
12.04.2003 15:00 8.5 C 81 % 1019.0 hPa 0.0 l/m 1.2 km/h (1 Bft) W-NW 5.3 C 8.4 C
12.04.2003 16:00 10.8 C 65 % 1019.0 hPa 0.0 l/m 3.2 km/h (1 Bft) W-NW 4.3 C 10.7 C
12.04.2003 17:00 11.7 C 60 % 1019.0 hPa 0.0 l/m 1.3 km/h (1 Bft) O-SO 4.2 C 11.7 C
12.04.2003 18:00 10.5 C 65 % 1019.1 hPa 0.0 l/m 0.2 km/h (0 Bft) O-SO 4.2 C 10.5 C
12.04.2003 19:00 9.8 C 70 % 1020.0 hPa 0.0 l/m 0.6 km/h (0 Bft) W-NW 4.6 C 9.7 C
12.04.2003 20:00 9.2 C 72 % 1021.1 hPa 0.0 l/m 7.9 km/h (2 Bft) SO 4.3 C 8.2 C
12.04.2003 21:00 8.0 C 79 % 1022.1 hPa 0.0 l/m 0.4 km/h (0 Bft) SO 4.6 C 7.9 C
12.04.2003 22:00 7.3 C 87 % 1022.1 hPa 0.0 l/m 0.4 km/h (0 Bft) SO 5.2 C 7.2 C
12.04.2003 23:00 6.7 C 89 % 1023.0 hPa 0.0 l/m 2.5 km/h (1 Bft) SO 5.0 C 6.5 C
13.04.2003 00:00 5.2 C 95 % 1023.2 hPa 0.0 l/m 0.5 km/h (0 Bft) SO 4.5 C 5.1 C
13.04.2003 01:00 3.6 C 99 % 1023.7 hPa 0.0 l/m 0.6 km/h (0 Bft) SO 3.5 C 3.6 C
13.04.2003 02:00 2.6 C 100 % 1024.2 hPa 0.0 l/m 0.2 km/h (0 Bft) SO 2.6 C 2.6 C
13.04.2003 03:00 1.6 C 100 % 1024.2 hPa 0.0 l/m 0.7 km/h (0 Bft) SO 1.6 C 1.6 C
13.04.2003 04:00 0.8 C 100 % 1024.2 hPa 0.0 l/m 0.1 km/h (0 Bft) N 0.8 C 0.8 C
13.04.2003 05:00 0.3 C 100 % 1024.2 hPa 0.0 l/m 0.0 km/h (0 Bft) N 0.3 C 0.3 C
13.04.2003 06:00 0.1 C 100 % 1024.2 hPa 0.0 l/m 0.4 km/h (0 Bft) O-SO 0.1 C 0.0 C
13.04.2003 07:00 0.7 C 100 % 1024.9 hPa 0.0 l/m 0.0 km/h (0 Bft) N 0.7 C 0.7 C
13.04.2003 08:00 1.9 C 100 % 1025.2 hPa 0.0 l/m 0.0 km/h (0 Bft) N 1.9 C 1.9 C
13.04.2003 09:00 4.0 C 99 % 1025.2 hPa 0.0 l/m 0.0 km/h (0 Bft) N 3.8 C 4.0 C
13.04.2003 10:00 7.7 C 80 % 1024.5 hPa 0.0 l/m 2.2 km/h (1 Bft) W-NW 4.5 C 7.5 C
13.04.2003 11:00 11.7 C 65 % 1023.7 hPa 0.0 l/m 13.6 km/h (3 Bft) O-SO 5.2 C 11.6 C
13.04.2003 12:00 14.5 C 53 % 1023.2 hPa 0.0 l/m 17.5 km/h (3 Bft) O-SO 5.0 C 14.5 C
13.04.2003 13:00 16.0 C 46 % 1022.4 hPa 0.0 l/m 22.2 km/h (4 Bft) SO 4.3 C 16.0 C
13.04.2003 14:00 16.7 C 42 % 1022.1 hPa 0.0 l/m 24.0 km/h (4 Bft) SO 3.7 C 16.7 C
13.04.2003 15:00 17.4 C 39 % 1021.1 hPa 0.0 l/m 26.9 km/h (4 Bft) SO 3.2 C 17.4 C
13.04.2003 16:00 17.5 C 37 % 1020.2 hPa 0.0 l/m 26.2 km/h (4 Bft) SO 2.6 C 17.5 C
13.04.2003 17:00 17.5 C 37 % 1019.8 hPa 0.0 l/m 21.4 km/h (4 Bft) SO 2.7 C 17.5 C
13.04.2003 18:00 17.0 C 39 % 1019.1 hPa 0.0 l/m 17.0 km/h (3 Bft) SO 2.9 C 17.0 C
13.04.2003 19:00 14.4 C 43 % 1019.0 hPa 0.0 l/m 4.0 km/h (1 Bft) SO 2.1 C 14.4 C
13.04.2003 20:00 12.0 C 51 % 1019.0 hPa 0.0 l/m 0.2 km/h (0 Bft) SO 2.2 C 12.0 C
13.04.2003 21:00 10.6 C 60 % 1019.0 hPa 0.0 l/m 0.0 km/h (0 Bft) N 3.0 C 10.6 C
13.04.2003 22:00 10.8 C 58 % 1019.0 hPa 0.0 l/m 0.2 km/h (0 Bft) N 2.7 C 10.8 C
13.04.2003 23:00 9.2 C 68 % 1019.0 hPa 0.0 l/m 1.3 km/h (1 Bft) SO 3.6 C 9.1 C
Min-Datum _ 08.04.03 07.04.03 10.04.03 - 07.04.03 - 07.04.03 08.04.03
_ Min-Zeit 06:58 14:36 11:00 - 01:06 - 19:18 05:43
Minimum _ -4.7 C 25 % 1002.3 hPa - 0.0 km/h (0 Bft) - -15.6 C -9.5 C
Max-Datum _ 13.04.03 10.04.03 13.04.03 10.04.03 10.04.03 - 13.04.03 13.04.03
_ Max-Zeit 17:30 04:39 07:21 05:00 15:33 - 11:21 17:30
Maximum _ 17.7 C 100 % 1025.2 hPa 1.2 l/m 53.1 km/h
NW (7 Bft)
- 6.2 C 17.7 C
Durchschnitt _ 4.0 C 68 % 1016.5 hPa #8.7 l/m 4.8 km/h (1 Bft) SO -2.4 C 3.2 C

Durchschnitt Minimum Temp.3.3 C
Durchschnitt Maximum Temp.4.7 C
© Kaiko 2003